CPC-Live.com

-JavaCPC_Desktop -demo -emu -javacpc_ani -roms -tools 0-9 A B C D E F G H I J K L M N O P Q R S T U V W X Y Z ZZZ_UNK
FILEDUMPDATESIZEDLs
KTris by Richard Wilson (PD).zipView 2013-01-07 11:46 2 Kb10
Kaiser (G) (19xx).zipView 2013-01-07 11:46 91 Kb10
Kane & Nebulus & Renaud - Marche a l'Ombre.zipView 2013-01-07 11:46 95 Kb5
Kane (UK) (1986).zipView 2013-01-07 11:46 28 Kb5
Kane (UK) (1986) [a1].zipView 2013-01-07 11:46 80 Kb6
Kane (UK) (1986) [a2].zipView 2013-01-07 11:46 38 Kb9
Kane (UK) (1986) [t1].zipView 2013-01-07 11:46 38 Kb6
Karateka (F) (1986).zipView 2013-01-07 11:46 50 Kb6
Karateka (F) (1986) [f1].zipView 2013-01-07 11:46 50 Kb7
Karateka (F) (1986) [t1].zipView 2013-01-07 11:46 50 Kb6
Karateka (F) (1990).zipView 2013-01-07 11:46 49 Kb5
Karateka (F) (1990) [t1].zipView 2013-01-07 11:46 49 Kb5
Karateka (F).dskView 2013-01-07 11:46 192 Kb15
Karl's Treasure Hunt (UK) (1984).zipView 2013-01-07 11:46 11 Kb10
Karl's Treasure Hunt (UK) (1984) [a1].zipView 2013-01-07 11:46 84 Kb5
Karl's Treasure Hunt (UK) (1984) [a2].zipView 2013-01-07 11:46 11 Kb5
Karnov (E) - Disk 1A.dskView 2013-01-07 11:46 214 Kb15
Karnov (E) - Disk 1B.dskView 2013-01-07 11:46 214 Kb15
Karnov (UK) (1988) (Disk 1 of 2).zipView 2013-01-07 11:46 73 Kb6
Karnov (UK) (1988) (Disk 1 of 2) [a1].zipView 2013-01-07 11:46 56 Kb3
Karnov (UK) (1988) (Disk 1 of 2) [t1].zipView 2013-01-07 11:46 159 Kb5
Karnov (UK) (1988) (Disk 1 of 2) [t2].zipView 2013-01-07 11:46 73 Kb6
Karnov (UK) (1988) (Disk 2 of 2).zipView 2013-01-07 11:46 62 Kb4
Karnov (UK) (1988) (Disk 2 of 2) [a1].zipView 2013-01-07 11:46 105 Kb5
Karnov (UK) (1988) (Disk 2 of 2) [t2].zipView 2013-01-07 11:46 62 Kb5
Kat Trap (E).dskView 2013-01-07 11:46 91 Kb15
Kat Trap (UK) (1987).zipView 2013-01-07 11:46 34 Kb6
Keep Yourself Alive (F) (1987).zipView 2013-01-07 11:46 19 Kb5
Kenny Dalglish Soccer Manager (E).cdtView 2013-01-07 11:46 57 Kb14
Kenny Dalglish Soccer Manager (UK) (1989).zipView 2013-01-07 11:46 25 Kb4
Kenny Dalglish Soccer Match (UK) (1990).zipView 2013-01-07 11:46 29 Kb5
Kentilla (UK) (1985).zipView 2013-01-07 11:46 23 Kb3
Kentilla (UK) (1985) [a1].zipView 2013-01-07 11:46 30 Kb6
Kentucky Racing (E).cdtView 2013-01-07 11:46 45 Kb16
Kentucky Racing (UK) (1990).zipView 2013-01-07 11:46 24 Kb5
Kentucky Racing (UK) (1990) [f1].zipView 2013-01-07 11:46 24 Kb7
Kessia (F) (19xx).zipView 2013-01-07 11:46 72 Kb8
Kettle (E).dskView 2013-01-07 11:46 193 Kb16
Kettle (UK) (1986).zipView 2013-01-07 11:46 21 Kb5
Kevin Thacker's CPC Guide (UK) (19xx) (PD) (Disk 1 of 2).zipView 2013-01-07 11:46 47 Kb6
Kevin Thacker's CPC Guide (UK) (19xx) (PD) (Disk 2 of 2).zipView 2013-01-07 11:46 41 Kb5
Key Factor, The (UK) (1985).zipView 2013-01-07 11:46 13 Kb5
Kick Off (UK,F,G,S,I) (1990).zipView 2013-01-07 11:46 27 Kb7
Kick Off (UK,F,G,S,I) (1990) [a1].zipView 2013-01-07 11:46 131 Kb4
Kick Off (UK,F,G,S,I) (1990) [a2].zipView 2013-01-07 11:46 31 Kb5
Kick Off 2 (E) - Disk 1A.dskView 2013-01-07 11:46 178 Kb19
Kick Off 2 (E) - Disk 1B.dskView 2013-01-07 11:46 178 Kb14
Kick Off 2 (F) (1990).zipView 2013-01-07 11:46 68 Kb9
Kick Off 2 (F) (1990) [a1].zipView 2013-01-07 11:46 68 Kb7
Kikstart II (UK) (1988).zipView 2013-01-07 11:46 24 Kb6
Kikstart II (UK) (1988) [a1].zipView 2013-01-07 11:46 23 Kb8
Killapede (UK) (1986).zipView 2013-01-07 11:46 26 Kb6
Killapede (UK) (1986) [a1].zipView 2013-01-07 11:46 26 Kb8
Killapede (UK) (1986) [a2].zipView 2013-01-07 11:46 32 Kb5
Killapede (UK) (1986) [a3].zipView 2013-01-07 11:46 30 Kb6
Killed Until Dead (UK) (1987) (Disk 1 of 2).zipView 2013-01-07 11:46 50 Kb5
Killed Until Dead (UK) (1987) (Disk 2 of 2).zipView 2013-01-07 11:46 62 Kb6
Killer Ball (UK) (1991).zipView 2013-01-07 11:46 103 Kb11
Killer Ball (UK) (1991) [a1].zipView 2013-01-07 11:46 103 Kb9
Killer Ball (UK) (1991) [a2].zipView 2013-01-07 11:46 76 Kb7
Killer Ball (UK) (1991) [a3].zipView 2013-01-07 11:46 96 Kb5
Killer Cobra (E).cdtView 2013-01-07 11:46 49 Kb22
Killer Cobra (UK) (1987).zipView 2013-01-07 11:46 27 Kb10
Killer Cobra (UK) (1987) [a1].zipView 2013-01-07 11:46 27 Kb8
Killer Cobra (UK) (1987) [a2].zipView 2013-01-07 11:46 31 Kb8
Killer Gorilla & Knight Lore & Laserwarp & Molecule Man & Zaxx (F).zipView 2013-01-07 11:46 82 Kb7
Killer Gorilla (UK) (1984).zipView 2013-01-07 11:46 19 Kb11
Killer Gorilla (UK) (1984) [a1].zipView 2013-01-07 11:46 19 Kb9
Killer Gorilla (UK) (1984) [a2].zipView 2013-01-07 11:46 15 Kb7
Killer Gorilla (UK) (1984) [a3].zipView 2013-01-07 11:46 18 Kb10
Killer Gorilla (UK) (1984) [b1].zipView 2013-01-07 11:46 19 Kb6
Killer Gorilla (UK) (1984) [b2].zipView 2013-01-07 11:46 19 Kb9
Killer Ring (UK) (1987).zipView 2013-01-07 11:46 16 Kb8
Killer Ring (UK) (1987) [a1].zipView 2013-01-07 11:46 16 Kb9
Kiloroid (UK) (19xx).zipView 2013-01-07 11:46 2 Kb9
Kim (F) (1986).zipView 2013-01-07 11:46 9 Kb7
Kinetic (UK) (1987).zipView 2013-01-07 11:46 35 Kb10
Kinetic (UK) (1987) [a1].zipView 2013-01-07 11:46 36 Kb10
Kinetic (UK) (1987) [a2].zipView 2013-01-07 11:46 35 Kb7
Kinetik (E).dskView 2013-01-07 11:46 195 Kb22
Kingdom of Hamil (UK) (1987).zipView 2013-01-07 11:46 57 Kb6
Kingdoms (UK) (1985).zipView 2013-01-07 11:46 5 Kb10
Kit de Telechargement - Telecharge Amstrad CPC (F).dskView 2013-01-07 11:46 217 Kb14
Kit de Telechargement pour Amstrad CPC (F).dskView 2013-01-07 11:46 191 Kb16
Klax & Meynaumede (F) & Nervous Break Down (F) & Skweek.zipView 2013-01-07 11:46 97 Kb5
Klax (E).dskView 2013-01-07 11:46 172 Kb17
Klax (UK) (1990) (CPM).zipView 2013-01-07 11:46 44 Kb7
Klax (UK) (1990) (CPM) [a1].zipView 2013-01-07 11:46 44 Kb9
Klax (UK) (1990) (CPM Version).zipView 2013-01-07 11:46 43 Kb5
Klax (UK) (1990) (CPM Version) [a1].zipView 2013-01-07 11:46 43 Kb6
Klax (UK) (1990) (Cart).zipView 2013-01-07 11:46 41 Kb7
Klax (UK) (1990).zipView 2013-01-07 11:46 42 Kb9
Klax (UK) (1990) [a1].zipView 2013-01-07 11:46 42 Kb6
Klax (UK) (1990) [h1].zipView 2013-01-07 11:46 52 Kb7
Klax (UK) (1990) [h2].zipView 2013-01-07 11:46 54 Kb7
Knaves and thou Prisoners (UK) (19xx).zipView 2013-01-07 11:46 8 Kb5
Knight Force (F) (1989) (Disk 1 of 2).zipView 2013-01-07 11:46 54 Kb6
Knight Force (F) (1989) (Disk 1 of 2) [t1].zipView 2013-01-07 11:46 55 Kb6
Knight Force (F) (1989) (Disk 1 of 2) [t2] & Power Drift.zipView 2013-01-07 11:46 108 Kb5
Knight Force (F) (1989) (Disk 1 of 2) [t2].zipView 2013-01-07 11:46 75 Kb6
Knight Force (F) (1989) (Disk 2 of 2).zipView 2013-01-07 11:46 76 Kb8
Knight Force (F) - Disk 1A.dskView 2013-01-07 11:46 456 Kb18
Knight Force (F) - Disk 1B.dskView 2013-01-07 11:46 627 Kb19
Knight Games (E) - Side A.cdtView 2013-01-07 11:46 166 Kb16
Knight Games (E) - Side B.cdtView 2013-01-07 11:46 142 Kb17
Knight Games (UK) (1986) (Disk 1 of 2).zipView 2013-01-07 11:46 88 Kb6
Knight Games (UK) (1986) (Disk 1 of 2) [a1].zipView 2013-01-07 11:46 83 Kb5
Knight Games (UK) (1986) (Disk 1 of 2) [a2].zipView 2013-01-07 11:46 83 Kb8
Knight Games (UK) (1986) (Disk 1 of 2) [a3].zipView 2013-01-07 11:46 103 Kb4
Knight Games (UK) (1986) (Disk 2 of 2).zipView 2013-01-07 11:46 94 Kb5
Knight Games (UK) (1986) (Disk 2 of 2) [a1].zipView 2013-01-07 11:46 76 Kb7
Knight Games (UK) (1986) (Disk 2 of 2) [a2].zipView 2013-01-07 11:46 79 Kb7
Knight Games (UK) (1986) (Disk 2 of 2) [a3].zipView 2013-01-07 11:46 109 Kb6
Knight Games (UK) (1986) [f1][t1].zipView 2013-01-07 11:46 179 Kb5
Knight Lore (E).cdtView 2013-01-07 11:46 42 Kb19
Knight Lore (UK) (1984).zipView 2013-01-07 11:46 25 Kb10
Knight Lore (UK) (1984) [a1].zipView 2013-01-07 11:46 25 Kb7
Knight Lore (UK) (1984) [a2].zipView 2013-01-07 11:46 25 Kb7
Knight Moves (F) (19xx) (Disk 1 of 2).zipView 2013-01-07 11:46 60 Kb5
Knight Moves (F) (19xx) (Disk 2 of 2).zipView 2013-01-07 11:46 83 Kb6
Knight Orc (E) - Disk 1A.dskView 2013-01-07 11:46 194 Kb16
Knight Orc (E) - Disk 1B.dskView 2013-01-07 11:46 199 Kb17
Knight Orc (UK) (1987) (Disk 1 of 2).zipView 2013-01-07 11:46 119 Kb5
Knight Orc (UK) (1987) (Disk 2 of 2).zipView 2013-01-07 11:46 110 Kb6
Knight Rider (E).cdtView 2013-01-07 11:46 45 Kb16
Knight Rider (UK) (1986).zipView 2013-01-07 11:46 20 Kb8
Knight Rider (UK) (1986) [h1].zipView 2013-01-07 11:46 32 Kb10
Knight Rider (UK) (1986) [h2].zipView 2013-01-07 11:46 21 Kb6
Knight Tyme (E).cdtView 2013-01-07 11:46 57 Kb22
Knight Tyme (UK) (1986).zipView 2013-01-07 11:46 31 Kb6
Knight Tyme (UK) (1986) [a1].zipView 2013-01-07 11:46 31 Kb5
Knight Tyme (UK) (1986) [t1].zipView 2013-01-07 11:46 31 Kb9
Knightmare (E).dskView 2013-01-07 11:46 213 Kb22
Knightmare (UK) (1987).zipView 2013-01-07 11:46 29 Kb7
Knightmare (UK) (1987) [a1].zipView 2013-01-07 11:46 30 Kb9
Knightmare (UK) (1987) [a2].zipView 2013-01-07 11:46 30 Kb7
Knightmare (UK) (1987) [t1].zipView 2013-01-07 11:46 33 Kb6
Know (G).dskView 2013-01-07 11:46 192 Kb16
Kobayashi Naru (UK) (19xx).zipView 2013-01-07 11:46 31 Kb5
Kobayashi Naru (UK) (1987).zipView 2013-01-07 11:46 31 Kb6
Kobayashi Naru (UK) (1987) [a1].zipView 2013-01-07 11:46 31 Kb7
Kobayashi Naru (UK) (1987) [a2].zipView 2013-01-07 11:46 48 Kb4
Kokotoni Wilf (UK) (19xx).zipView 2013-01-07 11:46 137 Kb5
Kokotoni Wilf (UK) (19xx) [a1].zipView 2013-01-07 11:46 35 Kb5
Kokotoni Wilf (UK) (19xx) [f1][t1].zipView 2013-01-07 11:46 37 Kb5
Konami's Golf (UK) (1986).zipView 2013-01-07 11:46 24 Kb6
Konami's Golf (UK) (1986) [a1].zipView 2013-01-07 11:46 24 Kb7
Konami's Golf (UK) (1986) [a2].zipView 2013-01-07 11:46 26 Kb6
Konami Coin-op Hits (UK) (19xx) (Disk 1 of 2).zipView 2013-01-07 11:46 50 Kb6
Konami Coin-op Hits (UK) (19xx) (Disk 1 of 2) [a1].zipView 2013-01-07 11:46 50 Kb5
Konami Coin-op Hits (UK) (19xx) (Disk 2 of 2).zipView 2013-01-07 11:46 65 Kb5
Konami Coin-op Hits (UK) (19xx) (Disk 2 of 2) [a1].zipView 2013-01-07 11:46 65 Kb7
Konami Coin-op Hits (UK) (19xx) (Disk 2 of 2) [a2].zipView 2013-01-07 11:46 65 Kb7
Kong Strikes Back (UK) (1985).zipView 2013-01-07 11:46 21 Kb7
Kong Strikes Back (UK) (1985) [a1].zipView 2013-01-07 11:46 21 Kb9
Kong Strikes Back (UK) (1985) [a2].zipView 2013-01-07 11:46 23 Kb8
Koronis Rift (E).dskView 2013-01-07 11:46 186 Kb17
Koronis Rift (UK) (1987).zipView 2013-01-07 11:46 57 Kb6
Krakout (E).cdtView 2013-01-07 11:46 64 Kb18
Krakout (E).dskView 2013-01-07 11:46 171 Kb18
Krakout (UK) (1987).zipView 2013-01-07 11:46 31 Kb6
Krakout (UK) (1987) [h1].zipView 2013-01-07 11:46 34 Kb8
Kristal (F).dskView 2013-01-07 11:46 191 Kb18
Kristal (UK) (1985).zipView 2013-01-07 11:46 16 Kb5
Kristax (UK) (1989).zipView 2013-01-07 11:46 9 Kb8
Krypton Factor (UK) (1987) (Disk 1 of 2).zipView 2013-01-07 11:46 52 Kb8
Krypton Factor (UK) (1987) (Disk 1 of 2) [a1].zipView 2013-01-07 11:46 47 Kb8
Krypton Factor (UK) (1987) (Disk 2 of 2).zipView 2013-01-07 11:46 5 Kb7
Krypton Factor (UK) (1987) (Disk 2 of 2) [a1].zipView 2013-01-07 11:46 21 Kb7
Kung-Fu (UK) (1986).zipView 2013-01-07 11:46 19 Kb7
Kung-Fu Master (E).dskView 2013-01-07 11:46 191 Kb17
Kung-Fu Master (UK) (1986).zipView 2013-01-07 11:46 28 Kb8
Kung-Fu Master (UK) (1986) [h1].zipView 2013-01-07 11:46 22 Kb7
Kwah (UK) (1987).zipView 2013-01-07 11:46 36 Kb8
Kwik Snax (E).cdtView 2013-01-07 11:46 65 Kb15
Kwik Snax (UK) (1990).zipView 2013-01-07 11:46 22 Kb6
Kwik Snax (UK) (1990) [f1].zipView 2013-01-07 11:46 33 Kb6
Kwik Snax (UK) (1990) [h1].zipView 2013-01-07 11:46 41 Kb5
Kwik Snax (UK) (1990) [t1].zipView 2013-01-07 11:46 33 Kb6
kobayashi Naru (E).cdtView 2013-01-07 11:46 74 Kb20
180 Files
-JavaCPC_Desktop -demo -emu -javacpc_ani -roms -tools 0-9 A B C D E F G H I J K L M N O P Q R S T U V W X Y Z ZZZ_UNK

CPC-Toplist

Valid XHTML 1.1  CSS Valido!